Portada
METAR-TAF:

METAR-TAF

Aeroports :

Rugby, Dakota del Nord, Estats Units d'Amèrica

latitud: 48-23-25N, longitud: 100-01-27W, altitud: 472 m

Observació

L'informe es va fer fa 18 minuts, a les 10:15 UTC
Vent 5 kt del Sud/Sud-Oest
Temperatura -15°C
Humitat 92%
Pressió 1010 hPa
Visibilitat: 16.1 km
Escasses núvols a una alçada de 3500 ft
Cel ennuvolat a una alçada de 4700 ft
Cel cobert a una alçada de 5500 ft

METAR: KRUG 151015Z AUTO 20005KT 10SM FEW035 BKN047 OVC055 M15/M16 A2983 RMK AO2

Hora: 04:33 (10:33 UTC)


TAF: manca

Observacions i pronòstics meteorològics de més de 4000 aeroports (METAR i TAF).

Les estacions disponibles són els punts grocs i vermells al mapa.

Posi el ratolí al punt desitjat per veure el nom de l'estació.

Feu clic per veure les observacions i els pronòstics meteorològics.

Per canviar el mapa: feu clic els botons verds amb una creu de color negre per apropar; al botó verd amb un guió per allunyar la imatge; o en les fletxes verdes per a mapes adjacents.


METAR-TAF: